Main page
Satellite images Climate Cyclones Lightning AirportsFAQ Languages Contact Newsletter About
Weather : Europe Africa North America South America Asia Australia-Oceania Others

hong-kong-cn, Hong Kong, Hong Kong International Airport

45004

latitude: , longitude: China, elevation: 22-19N m


METAR: VHHH 212030Z 36016KT 9999 FEW020 SCT028 19/13 Q1019 NOSIG